createdAt,value
2018-12-30T00:08:05.751Z,13.70
2018-12-30T00:10:53.133Z,11.83
2018-12-30T00:40:08.970Z,14.50
2018-12-30T00:42:58.082Z,12.60
2018-12-30T01:30:09.543Z,13.53
2018-12-30T01:32:56.959Z,13.57
2018-12-30T01:35:44.350Z,15.93
2018-12-30T01:47:19.820Z,8.57
2018-12-30T01:50:00.153Z,10.90
2018-12-30T01:52:38.323Z,11.90
2018-12-30T07:14:06.663Z,9.53
2018-12-30T07:16:54.050Z,15.27
2018-12-30T09:42:06.012Z,10.47
2018-12-30T09:44:53.403Z,9.07
2018-12-30T12:10:10.036Z,15.50
2018-12-30T12:12:57.441Z,14.63
2018-12-30T12:30:29.875Z,12.87
2018-12-30T12:33:09.612Z,12.97
2018-12-30T12:35:49.291Z,14.43
2018-12-30T12:38:27.497Z,11.47
2018-12-30T12:46:52.575Z,16.30
2018-12-30T12:49:39.962Z,10.73
2018-12-30T12:52:28.271Z,10.90
2018-12-30T14:06:42.351Z,11.27
2018-12-30T14:09:22.356Z,10.67
2018-12-30T14:12:00.240Z,7.30
2018-12-30T15:02:06.879Z,6.53
2018-12-30T15:04:54.324Z,6.83
2018-12-30T15:37:08.981Z,13.33
2018-12-30T15:39:56.367Z,12.00
2018-12-30T20:46:06.075Z,11.93
2018-12-30T20:48:53.463Z,13.87
2018-12-30T20:54:19.657Z,16.10
2018-12-30T20:56:47.772Z,17.07
2018-12-30T20:59:15.821Z,19.40
2018-12-30T21:01:43.894Z,20.23
2018-12-30T21:04:11.979Z,19.43
2018-12-30T21:06:40.042Z,23.77
2018-12-30T21:09:08.110Z,21.83
2018-12-30T21:11:36.230Z,24.73
2018-12-30T21:14:04.335Z,21.57
2018-12-30T21:16:32.457Z,19.73
2018-12-30T21:19:00.551Z,17.67
2018-12-30T21:21:28.610Z,23.40
2018-12-30T21:23:56.677Z,17.63
2018-12-30T21:26:24.728Z,20.23
2018-12-30T21:28:52.814Z,24.67
2018-12-30T21:31:20.863Z,23.13
2018-12-30T21:33:48.933Z,22.90
2018-12-30T21:36:16.998Z,22.23
2018-12-30T21:38:45.057Z,20.30
2018-12-30T21:41:13.151Z,27.63
2018-12-30T21:43:41.207Z,18.77
2018-12-30T21:46:09.263Z,18.03
2018-12-30T21:48:37.311Z,22.93
2018-12-30T21:51:05.370Z,20.03
2018-12-30T21:53:33.422Z,20.33
2018-12-30T21:56:01.473Z,22.37
2018-12-30T21:58:29.543Z,19.83
2018-12-30T22:00:57.591Z,23.43
2018-12-30T22:03:25.679Z,23.77
2018-12-30T22:05:53.741Z,20.87
2018-12-30T22:08:21.802Z,22.80
2018-12-30T22:10:49.882Z,20.07
2018-12-30T22:13:17.934Z,20.87
2018-12-30T22:15:45.990Z,26.23
2018-12-30T22:18:14.043Z,20.97
2018-12-30T22:20:42.107Z,24.60
2018-12-30T22:23:10.199Z,22.13
2018-12-30T22:25:38.246Z,22.80
2018-12-30T22:28:06.344Z,20.13
2018-12-30T22:30:34.461Z,21.27
2018-12-30T22:33:02.539Z,21.70
2018-12-30T22:35:30.574Z,22.30
2018-12-30T22:37:58.625Z,19.50
2018-12-30T22:40:26.695Z,26.50
2018-12-30T22:42:54.742Z,21.77
2018-12-30T22:45:22.814Z,21.60
2018-12-30T22:48:10.232Z,23.67
2018-12-30T22:50:57.627Z,25.97
2018-12-30T23:11:28.576Z,30.57
2018-12-30T23:14:06.559Z,21.50
